First Ferry Vi — VRS4293 — position and weather

sailwx.info

Track history (hours):
 
Tides and Currents Weather Stations Pressure Air Temp Water Temp Dewpoint Dewpoint Depression Visibility Wind Speed Wind Dir Waves Ship Positions

First Ferry Vi

Last reported at 2014-Nov-28 14:25 UTC. Time now 2014-Nov-28 16:48 UTC.
Position N 22°17' E 114°10'.

Length 36 m; draft 1.8 m.

Type: Ship. MMSI: 477995028.

Date/timePositionNaut miles runAvg speedWind from/ knotsBaromVisibWave heightAir tempDewpointWater temp
2014-Nov-28 14:25N 22°17' E 114°10'2 1.7
2014-Nov-28 13:30N 22°18' E 114°08'1 0.3
2014-Nov-28 11:09N 22°18' E 114°09'0 0.2
2014-Nov-28 09:19N 22°18' E 114°08'4 1.3
2014-Nov-28 06:34N 22°19' E 114°12'0 0.0
2014-Nov-28 05:33N 22°19' E 114°12'0 0.0
2014-Nov-28 04:34N 22°19' E 114°12'0 0.0
2014-Nov-28 03:33N 22°19' E 114°12'0 0.0
2014-Nov-28 02:34N 22°19' E 114°12'2 1.8
2014-Nov-28 01:11N 22°19' E 114°09'2 0.9
2014-Nov-27 23:29N 22°17' E 114°10'0 0.0
2014-Nov-27 14:24N 22°17' E 114°09'1 1.4
2014-Nov-27 13:29N 22°18' E 114°08'0 0.0
2014-Nov-27 11:10N 22°18' E 114°08'0 0.1
2014-Nov-27 09:19N 22°18' E 114°08'0 0.1
2014-Nov-27 07:20N 22°18' E 114°08'3 4.3
2014-Nov-27 06:33N 22°18' E 114°12'1 0.6
2014-Nov-27 05:33N 22°19' E 114°12'0 0.0
2014-Nov-27 04:33N 22°19' E 114°12'0 0.0
2014-Nov-27 03:34N 22°19' E 114°12'0 0.0
2014-Nov-27 02:34N 22°19' E 114°12'0 0.0
2014-Nov-27 01:34N 22°19' E 114°12'3 1.2
2014-Nov-26 23:28N 22°17' E 114°10'0 0.0
2014-Nov-26 14:23N 22°17' E 114°10'1 1.1
2014-Nov-26 13:10N 22°18' E 114°08'0 0.1
2014-Nov-26 11:09N 22°18' E 114°08'0 0.3
2014-Nov-26 10:34N 22°18' E 114°08'0 0.1
2014-Nov-26 09:18N 22°18' E 114°08'0 0.1
2014-Nov-26 08:34N 22°18' E 114°08'0 0.1
2014-Nov-26 07:20N 22°18' E 114°08'3 4.5
2014-Nov-26 06:34N 22°19' E 114°12'0 0.2
2014-Nov-26 05:33N 22°19' E 114°12'0 0.0
2014-Nov-26 04:33N 22°19' E 114°12'0 0.0
2014-Nov-26 03:33N 22°19' E 114°12'0 0.0
2014-Nov-26 02:33N 22°19' E 114°12'2 1.9
2014-Nov-26 01:16N 22°19' E 114°09'1 0.7
2014-Nov-25 23:27N 22°17' E 114°09'0 0.0
2014-Nov-25 16:33N 22°17' E 114°10'0 0.0
2014-Nov-25 14:22N 22°17' E 114°10'1 1.7
2014-Nov-25 13:30N 22°18' E 114°08'1 0.2
2014-Nov-25 11:09N 22°18' E 114°09'3 4.3
2014-Nov-25 10:33N 22°18' E 114°11'1 1.1
2014-Nov-25 09:33N 22°19' E 114°12'0 0.0
2014-Nov-25 08:32N 22°19' E 114°12'0 0.0
2014-Nov-25 07:33N 22°19' E 114°12'0 0.0
2014-Nov-25 06:33N 22°19' E 114°12'3 2.0
2014-Nov-25 05:19N 22°17' E 114°10'0 0.0
2014-Nov-25 03:19N 22°17' E 114°10'0 0.0
2014-Nov-24 23:28N 22°17' E 114°10'0 0.0
2014-Nov-24 14:20N 22°17' E 114°09'1 1.2
2014-Nov-24 13:28N 22°18' E 114°08'0 0.0
2014-Nov-24 11:10N 22°18' E 114°08'0 0.2
2014-Nov-24 10:33N 22°18' E 114°08'0 0.1
2014-Nov-24 09:20N 22°18' E 114°08'0 0.0
2014-Nov-24 07:19N 22°18' E 114°08'4 4.3
2014-Nov-24 06:29N 22°19' E 114°12'0 0.0
2014-Nov-24 05:33N 22°19' E 114°12'3 1.5
2014-Nov-24 03:17N 22°18' E 114°08'4 4.8
2014-Nov-24 02:33N 22°19' E 114°12'3 1.9
2014-Nov-24 01:11N 22°19' E 114°09'2 1.0
2014-Nov-23 23:30N 22°17' E 114°10'0 0.0
2014-Nov-23 16:33N 22°17' E 114°10'1 0.5
2014-Nov-23 14:28N 22°18' E 114°08'0 0.1
2014-Nov-23 12:29N 22°18' E 114°08'0 0.1
2014-Nov-23 10:29N 22°18' E 114°08'0 0.1
2014-Nov-23 08:29N 22°18' E 114°08'0 0.0
2014-Nov-23 06:29N 22°18' E 114°08'0 0.1
2014-Nov-23 04:09N 22°18' E 114°08'1 0.3
2014-Nov-23 00:32N 22°17' E 114°10'1 0.9
2014-Nov-22 23:07N 22°18' E 114°08'1 0.2
2014-Nov-22 15:08N 22°17' E 114°10'1 1.5
2014-Nov-22 14:10N 22°18' E 114°08'1 0.4
2014-Nov-22 11:07N 22°17' E 114°09'1 1.2
2014-Nov-22 10:10N 22°18' E 114°08'1 1.2
2014-Nov-22 09:18N 22°17' E 114°09'0 0.1
2014-Nov-22 07:19N 22°17' E 114°10'0 0.1
2014-Nov-22 05:18N 22°17' E 114°09'0 0.0
2014-Nov-22 03:20N 22°17' E 114°10'2 1.1
2014-Nov-22 01:25N 22°18' E 114°12'2 1.9
2014-Nov-22 00:17N 22°17' E 114°10'1 1.1
2014-Nov-21 23:07N 22°18' E 114°08'1 0.1
2014-Nov-21 15:07N 22°17' E 114°09'1 1.3
2014-Nov-21 14:08N 22°18' E 114°08'2 2.3
2014-Nov-21 13:24N 22°17' E 114°10'0 0.3
2014-Nov-21 12:31N 22°17' E 114°10'1 1.2
2014-Nov-21 11:24N 22°18' E 114°08'1 0.6
2014-Nov-21 09:18N 22°17' E 114°09'2 1.1
2014-Nov-21 07:23N 22°18' E 114°12'1 0.9
2014-Nov-21 06:31N 22°19' E 114°12'3 2.1
2014-Nov-21 05:18N 22°17' E 114°10'0 0.1
2014-Nov-21 03:18N 22°17' E 114°09'1 0.6
2014-Nov-21 01:25N 22°18' E 114°09'1 0.8
2014-Nov-21 00:33N 22°19' E 114°09'1 1.0
2014-Nov-20 23:08N 22°18' E 114°08'1 0.2
2014-Nov-20 15:07N 22°17' E 114°10'1 1.4
2014-Nov-20 14:09N 22°18' E 114°08'1 0.7
2014-Nov-20 12:30N 22°17' E 114°09'1 1.0
2014-Nov-20 11:23N 22°18' E 114°08'0 0.1
2014-Nov-20 10:09N 22°18' E 114°08'2 0.2
2014-Nov-20 00:33N 22°19' E 114°09'2 1.1
2014-Nov-19 23:08N 22°18' E 114°08'1 0.2
2014-Nov-19 15:07N 22°17' E 114°09'1 1.4
2014-Nov-19 14:09N 22°18' E 114°08'1 0.9
2014-Nov-19 12:31N 22°17' E 114°10'1 1.0
2014-Nov-19 11:22N 22°18' E 114°08'0 0.1
2014-Nov-19 10:09N 22°18' E 114°08'3 5.6
2014-Nov-19 09:32N 22°19' E 114°12'0 0.3
2014-Nov-19 08:21N 22°19' E 114°12'0 0.0
2014-Nov-19 07:27N 22°19' E 114°12'0 0.0
2014-Nov-19 06:22N 22°19' E 114°12'1 0.8
2014-Nov-19 05:33N 22°18' E 114°12'2 1.0
2014-Nov-19 03:19N 22°17' E 114°10'1 0.5
2014-Nov-19 01:33N 22°18' E 114°09'1 1.1
2014-Nov-19 00:32N 22°19' E 114°09'2 1.2
2014-Nov-18 23:08N 22°18' E 114°08'2 0.2
2014-Nov-18 15:33N 22°17' E 114°10'  
Track history (hours):
 
Tides and Currents Weather Stations Pressure Air Temp Water Temp Dewpoint Dewpoint Depression Visibility Wind Speed Wind Dir Waves Ship Positions

First Ferry Vi

Last reported at 2014-Nov-28 14:25 UTC. Time now 2014-Nov-28 16:48 UTC.
Position N 22°17' E 114°10'.

Length 36 m; draft 1.8 m.

Type: Ship. MMSI: 477995028.

Date/timePositionNaut miles runAvg speedWind from/ knotsBaromVisibWave heightAir tempDewpointWater temp
2014-Nov-28 14:25N 22°17' E 114°10'2 1.7
2014-Nov-28 13:30N 22°18' E 114°08'1 0.3
2014-Nov-28 11:09N 22°18' E 114°09'0 0.2
2014-Nov-28 09:19N 22°18' E 114°08'4 1.3
2014-Nov-28 06:34N 22°19' E 114°12'0 0.0
2014-Nov-28 05:33N 22°19' E 114°12'0 0.0
2014-Nov-28 04:34N 22°19' E 114°12'0 0.0
2014-Nov-28 03:33N 22°19' E 114°12'0 0.0
2014-Nov-28 02:34N 22°19' E 114°12'2 1.8
2014-Nov-28 01:11N 22°19' E 114°09'2 0.9
2014-Nov-27 23:29N 22°17' E 114°10'0 0.0
2014-Nov-27 14:24N 22°17' E 114°09'1 1.4
2014-Nov-27 13:29N 22°18' E 114°08'0 0.0
2014-Nov-27 11:10N 22°18' E 114°08'0 0.1
2014-Nov-27 09:19N 22°18' E 114°08'0 0.1
2014-Nov-27 07:20N 22°18' E 114°08'3 4.3
2014-Nov-27 06:33N 22°18' E 114°12'1 0.6
2014-Nov-27 05:33N 22°19' E 114°12'0 0.0
2014-Nov-27 04:33N 22°19' E 114°12'0 0.0
2014-Nov-27 03:34N 22°19' E 114°12'0 0.0
2014-Nov-27 02:34N 22°19' E 114°12'0 0.0
2014-Nov-27 01:34N 22°19' E 114°12'3 1.2
2014-Nov-26 23:28N 22°17' E 114°10'0 0.0
2014-Nov-26 14:23N 22°17' E 114°10'1 1.1
2014-Nov-26 13:10N 22°18' E 114°08'0 0.1
2014-Nov-26 11:09N 22°18' E 114°08'0 0.3
2014-Nov-26 10:34N 22°18' E 114°08'0 0.1
2014-Nov-26 09:18N 22°18' E 114°08'0 0.1
2014-Nov-26 08:34N 22°18' E 114°08'0 0.1
2014-Nov-26 07:20N 22°18' E 114°08'3 4.5
2014-Nov-26 06:34N 22°19' E 114°12'0 0.2
2014-Nov-26 05:33N 22°19' E 114°12'0 0.0
2014-Nov-26 04:33N 22°19' E 114°12'0 0.0
2014-Nov-26 03:33N 22°19' E 114°12'0 0.0
2014-Nov-26 02:33N 22°19' E 114°12'2 1.9
2014-Nov-26 01:16N 22°19' E 114°09'1 0.7
2014-Nov-25 23:27N 22°17' E 114°09'0 0.0
2014-Nov-25 16:33N 22°17' E 114°10'0 0.0
2014-Nov-25 14:22N 22°17' E 114°10'1 1.7
2014-Nov-25 13:30N 22°18' E 114°08'1 0.2
2014-Nov-25 11:09N 22°18' E 114°09'3 4.3
2014-Nov-25 10:33N 22°18' E 114°11'1 1.1
2014-Nov-25 09:33N 22°19' E 114°12'0 0.0
2014-Nov-25 08:32N 22°19' E 114°12'0 0.0
2014-Nov-25 07:33N 22°19' E 114°12'0 0.0
2014-Nov-25 06:33N 22°19' E 114°12'3 2.0
2014-Nov-25 05:19N 22°17' E 114°10'0 0.0
2014-Nov-25 03:19N 22°17' E 114°10'0 0.0
2014-Nov-24 23:28N 22°17' E 114°10'0 0.0
2014-Nov-24 14:20N 22°17' E 114°09'1 1.2
2014-Nov-24 13:28N 22°18' E 114°08'0 0.0
2014-Nov-24 11:10N 22°18' E 114°08'0 0.2
2014-Nov-24 10:33N 22°18' E 114°08'0 0.1
2014-Nov-24 09:20N 22°18' E 114°08'0 0.0
2014-Nov-24 07:19N 22°18' E 114°08'4 4.3
2014-Nov-24 06:29N 22°19' E 114°12'0 0.0
2014-Nov-24 05:33N 22°19' E 114°12'3 1.5
2014-Nov-24 03:17N 22°18' E 114°08'4 4.8
2014-Nov-24 02:33N 22°19' E 114°12'3 1.9
2014-Nov-24 01:11N 22°19' E 114°09'2 1.0
2014-Nov-23 23:30N 22°17' E 114°10'0 0.0
2014-Nov-23 16:33N 22°17' E 114°10'1 0.5
2014-Nov-23 14:28N 22°18' E 114°08'0 0.1
2014-Nov-23 12:29N 22°18' E 114°08'0 0.1
2014-Nov-23 10:29N 22°18' E 114°08'0 0.1
2014-Nov-23 08:29N 22°18' E 114°08'0 0.0
2014-Nov-23 06:29N 22°18' E 114°08'0 0.1
2014-Nov-23 04:09N 22°18' E 114°08'1 0.3
2014-Nov-23 00:32N 22°17' E 114°10'1 0.9
2014-Nov-22 23:07N 22°18' E 114°08'1 0.2
2014-Nov-22 15:08N 22°17' E 114°10'1 1.5
2014-Nov-22 14:10N 22°18' E 114°08'1 0.4
2014-Nov-22 11:07N 22°17' E 114°09'1 1.2
2014-Nov-22 10:10N 22°18' E 114°08'1 1.2
2014-Nov-22 09:18N 22°17' E 114°09'0 0.1
2014-Nov-22 07:19N 22°17' E 114°10'0 0.1
2014-Nov-22 05:18N 22°17' E 114°09'0 0.0
2014-Nov-22 03:20N 22°17' E 114°10'2 1.1
2014-Nov-22 01:25N 22°18' E 114°12'2 1.9
2014-Nov-22 00:17N 22°17' E 114°10'1 1.1
2014-Nov-21 23:07N 22°18' E 114°08'1 0.1
2014-Nov-21 15:07N 22°17' E 114°09'1 1.3
2014-Nov-21 14:08N 22°18' E 114°08'2 2.3
2014-Nov-21 13:24N 22°17' E 114°10'0 0.3
2014-Nov-21 12:31N 22°17' E 114°10'1 1.2
2014-Nov-21 11:24N 22°18' E 114°08'1 0.6
2014-Nov-21 09:18N 22°17' E 114°09'2 1.1
2014-Nov-21 07:23N 22°18' E 114°12'1 0.9
2014-Nov-21 06:31N 22°19' E 114°12'3 2.1
2014-Nov-21 05:18N 22°17' E 114°10'0 0.1
2014-Nov-21 03:18N 22°17' E 114°09'1 0.6
2014-Nov-21 01:25N 22°18' E 114°09'1 0.8
2014-Nov-21 00:33N 22°19' E 114°09'1 1.0
2014-Nov-20 23:08N 22°18' E 114°08'1 0.2
2014-Nov-20 15:07N 22°17' E 114°10'1 1.4
2014-Nov-20 14:09N 22°18' E 114°08'1 0.7
2014-Nov-20 12:30N 22°17' E 114°09'1 1.0
2014-Nov-20 11:23N 22°18' E 114°08'0 0.1
2014-Nov-20 10:09N 22°18' E 114°08'2 0.2
2014-Nov-20 00:33N 22°19' E 114°09'2 1.1
2014-Nov-19 23:08N 22°18' E 114°08'1 0.2
2014-Nov-19 15:07N 22°17' E 114°09'1 1.4
2014-Nov-19 14:09N 22°18' E 114°08'1 0.9
2014-Nov-19 12:31N 22°17' E 114°10'1 1.0
2014-Nov-19 11:22N 22°18' E 114°08'0 0.1
2014-Nov-19 10:09N 22°18' E 114°08'3 5.6
2014-Nov-19 09:32N 22°19' E 114°12'0 0.3
2014-Nov-19 08:21N 22°19' E 114°12'0 0.0
2014-Nov-19 07:27N 22°19' E 114°12'0 0.0
2014-Nov-19 06:22N 22°19' E 114°12'1 0.8
2014-Nov-19 05:33N 22°18' E 114°12'2 1.0
2014-Nov-19 03:19N 22°17' E 114°10'1 0.5
2014-Nov-19 01:33N 22°18' E 114°09'1 1.1
2014-Nov-19 00:32N 22°19' E 114°09'2 1.2
2014-Nov-18 23:08N 22°18' E 114°08'2 0.2
2014-Nov-18 15:33N 22°17' E 114°10'  

Dump ship's entire track history